Time;durP1;ratioP1;P1;durP2;ratioP2;P2;SDS_P1;SDS_P2;PMS_P1;PMS_P2;Temp;Humidity;BMP_temperature;BMP_pressure;BME280_temperature;BME280_humidity;BME280_pressure;Samples;Min_cycle;Max_cycle;Signal;HPM_P1;HPM_P2
2020/12/14 00:00:46;;;;;;;30.67;20.33;;;;;;;0.91;100.00;100072.44;2078787;28;20508;-58
2020/12/14 00:01:47;;;;;;;26.97;19.33;;;;;;;0.86;100.00;100071.53;2079084;28;20059;-58
2020/12/14 00:02:47;;;;;;;28.70;19.70;;;;;;;0.98;100.00;100073.31;2078906;28;20075;-58
2020/12/14 00:03:47;;;;;;;31.37;20.70;;;;;;;0.92;100.00;100068.16;2079155;28;20422;-58
2020/12/14 00:04:48;;;;;;;25.80;18.53;;;;;;;0.89;100.00;100081.81;2077704;28;20036;-58
2020/12/14 00:05:48;;;;;;;29.60;19.73;;;;;;;0.89;100.00;100084.38;2073883;28;20029;-58
2020/12/14 00:06:50;;;;;;;29.83;19.50;;;;;;;0.86;100.00;100084.34;2072111;28;20040;-58
2020/12/14 00:07:50;;;;;;;28.65;19.35;;;;;;;0.88;100.00;100082.66;2071126;28;20038;-58
2020/12/14 00:08:50;;;;;;;26.33;19.33;;;;;;;0.88;100.00;100092.09;2077892;28;20547;-58
2020/12/14 00:09:51;;;;;;;26.20;19.07;;;;;;;0.90;100.00;100096.38;2077480;28;20443;-58
2020/12/14 00:10:51;;;;;;;26.63;18.70;;;;;;;0.82;100.00;100092.88;2079271;28;20029;-58
2020/12/14 00:11:51;;;;;;;27.67;19.63;;;;;;;0.78;100.00;100103.97;2078839;28;20029;-58
2020/12/14 00:12:52;;;;;;;28.47;19.53;;;;;;;0.68;100.00;100099.59;2071867;28;20029;-58
2020/12/14 00:13:52;;;;;;;28.13;19.53;;;;;;;0.60;100.00;100108.09;2077268;28;20029;-58
2020/12/14 00:14:52;;;;;;;24.37;18.93;;;;;;;0.57;100.00;100100.38;2079307;28;20040;-58
2020/12/14 00:15:52;;;;;;;28.57;19.10;;;;;;;0.54;100.00;100099.47;2072693;28;20022;-58
2020/12/14 00:16:54;;;;;;;25.87;18.23;;;;;;;0.57;100.00;100092.66;2071063;28;20033;-58
2020/12/14 00:17:54;;;;;;;;;;;;;;;0.65;100.00;100095.31;2071174;28;20084;-59
2020/12/14 00:18:54;;;;;;;29.98;20.58;;;;;;;0.63;100.00;100085.88;2070958;28;19960;-58
2020/12/14 00:19:55;;;;;;;27.40;18.67;;;;;;;0.64;100.00;100080.75;2071049;28;20101;-59
2020/12/14 00:20:55;;;;;;;30.47;20.40;;;;;;;0.63;100.00;100085.88;2070374;28;20038;-58
2020/12/14 00:21:55;;;;;;;27.80;19.27;;;;;;;0.58;100.00;100078.16;2076977;28;20029;-58
2020/12/14 00:22:56;;;;;;;31.03;19.70;;;;;;;0.64;100.00;100082.47;2078637;28;20029;-58
2020/12/14 00:23:56;;;;;;;25.80;19.07;;;;;;;0.61;100.00;100083.28;2075127;28;20040;-58
2020/12/14 00:24:56;;;;;;;25.37;18.27;;;;;;;0.61;100.00;100079.03;2079090;28;20022;-58
2020/12/14 00:25:57;;;;;;;27.70;19.17;;;;;;;0.61;100.00;100068.78;2080224;28;20026;-58
2020/12/14 00:26:57;;;;;;;27.60;18.57;;;;;;;0.71;100.00;100073.97;2082501;28;20061;-58
2020/12/14 00:27:57;;;;;;;27.77;20.43;;;;;;;0.60;100.00;100068.75;2080815;28;20032;-58
2020/12/14 00:28:58;;;;;;;30.10;19.57;;;;;;;0.60;100.00;100069.63;2083098;28;20505;-58
2020/12/14 00:29:58;;;;;;;26.42;19.05;;;;;;;0.60;100.00;100067.06;2073856;28;20097;-58
2020/12/14 00:30:59;;;;;;;26.60;18.97;;;;;;;0.64;100.00;100067.09;2085552;28;20042;-58
2020/12/14 00:31:59;;;;;;;26.80;18.93;;;;;;;0.76;100.00;100062.91;2081382;28;20043;-58
2020/12/14 00:32:59;;;;;;;25.90;18.70;;;;;;;0.65;100.00;100063.66;2086021;28;20028;-58
2020/12/14 00:34:00;;;;;;;26.37;18.23;;;;;;;0.76;100.00;100056.91;2081217;28;20040;-58
2020/12/14 00:35:00;;;;;;;29.13;18.33;;;;;;;0.72;100.00;100055.19;2081282;28;20035;-58
2020/12/14 00:36:00;;;;;;;26.97;18.37;;;;;;;0.78;100.00;100050.94;2081922;28;20768;-58
2020/12/14 00:37:02;;;;;;;24.87;18.17;;;;;;;0.77;100.00;100056.06;2081393;28;20489;-58
2020/12/14 00:38:02;;;;;;;28.60;18.75;;;;;;;0.83;100.00;100047.56;2080918;28;20496;-58
2020/12/14 00:39:03;;;;;;;25.30;17.63;;;;;;;0.69;100.00;100050.88;2072891;28;20028;-58
2020/12/14 00:40:03;;;;;;;28.70;17.85;;;;;;;0.71;100.00;100044.03;2073275;28;20026;-58
2020/12/14 00:41:05;;;;;;;24.83;17.73;;;;;;;0.76;100.00;100044.06;2073078;28;20037;-58
2020/12/14 00:42:05;;;;;;;24.33;18.08;;;;;;;0.88;100.00;100041.59;2073226;28;20383;-58
2020/12/14 00:43:05;;;;;;;23.20;17.30;;;;;;;0.82;100.00;100033.88;2072742;28;20037;-58
2020/12/14 00:44:06;;;;;;;25.80;17.23;;;;;;;0.89;100.00;100033.06;2073323;28;20033;-58
2020/12/14 00:45:06;;;;;;;22.00;16.70;;;;;;;1.03;100.00;100030.59;2075117;28;20747;-57
2020/12/14 00:46:11;;;;;;;25.60;18.00;;;;;;;1.08;100.00;100030.59;2081383;28;20025;-58
2020/12/14 00:47:11;;;;;;;24.90;18.20;;;;;;;0.99;100.00;100023.69;2081156;28;20029;-58
2020/12/14 00:48:11;;;;;;;25.23;18.57;;;;;;;1.03;100.00;100029.75;2081493;28;20382;-58
2020/12/14 00:49:12;;;;;;;26.83;19.73;;;;;;;1.01;100.00;100027.13;2079210;28;20091;-58
2020/12/14 00:50:13;;;;;;;27.20;19.23;;;;;;;1.09;100.00;100027.19;2081021;28;20549;-57
2020/12/14 00:51:13;;;;;;;31.60;18.03;;;;;;;1.17;100.00;100028.09;2081427;28;20034;-58
2020/12/14 00:52:13;;;;;;;30.40;19.37;;;;;;;1.20;100.00;100034.94;2080866;28;20095;-58
2020/12/14 00:53:14;;;;;;;25.57;18.27;;;;;;;1.14;100.00;100038.34;2081558;28;20034;-59
2020/12/14 00:54:15;;;;;;;32.40;19.33;;;;;;;1.17;100.00;100050.34;2081335;28;20053;-58
2020/12/14 00:55:16;;;;;;;24.90;18.67;;;;;;;1.13;100.00;100051.16;2080694;28;20108;-58
2020/12/14 00:56:17;;;;;;;;;;;;;;;1.14;100.00;100051.16;2081126;28;20047;-58
2020/12/14 00:57:17;;;;;;;;;;;;;;;1.09;100.00;100055.44;2081854;28;19909;-58
2020/12/14 00:58:17;;;;;;;;;;;;;;;1.08;100.00;100059.69;2081733;28;19913;-58
2020/12/14 00:59:18;;;;;;;;;;;;;;;1.05;100.00;100056.25;2081412;28;19916;-58
2020/12/14 01:00:18;;;;;;;;;;;;;;;1.09;100.00;100061.41;2081168;28;19916;-58
2020/12/14 01:01:18;;;;;;;;;;;;;;;1.10;100.00;100070.00;2080439;28;19909;-57
2020/12/14 01:02:22;;;;;;;;;;;;;;;1.08;100.00;100081.94;2073186;28;19909;-58
2020/12/14 01:03:25;;;;;;;;;;;;;;;1.03;100.00;100081.06;2073923;28;19916;-58
2020/12/14 01:04:28;;;;;;;;;;;;;;;1.04;100.00;100082.75;2079848;28;19913;-57
2020/12/14 01:05:28;;;;;;;;;;;;;;;1.12;100.00;100078.56;2080892;28;19909;-57
2020/12/14 01:06:29;;;;;;;;;;;;;;;1.22;100.00;100079.47;2081573;28;19913;-58
2020/12/14 01:07:29;;;;;;;;;;;;;;;1.28;100.00;100081.22;2080623;28;19971;-57
2020/12/14 01:08:29;;;;;;;;;;;;;;;1.39;100.00;100080.41;2080699;28;20446;-58
2020/12/14 01:09:29;;;;;;;;;;;;;;;1.47;100.00;100079.63;2079241;28;19944;-58
2020/12/14 01:10:29;;;;;;;;;;;;;;;1.44;100.00;100080.44;2081298;28;19920;-57
2020/12/14 01:11:30;;;;;;;;;;;;;;;1.51;100.00;100077.06;2081337;28;19909;-57
2020/12/14 01:12:30;;;;;;;;;;;;;;;1.54;100.00;100077.06;2077351;28;20388;-57
2020/12/14 01:13:30;;;;;;;;;;;;;;;1.58;100.00;100075.34;2073345;28;20366;-57
2020/12/14 01:14:30;;;;;;;;;;;;;;;1.59;100.00;100069.38;2073199;28;19952;-57
2020/12/14 01:15:30;;;;;;;;;;;;;;;1.65;100.00;100072.00;2073324;28;20358;-57
2020/12/14 01:16:31;;;;;;;;;;;;;;;1.66;100.00;100065.13;2076135;28;19959;-57
2020/12/14 01:17:31;;;;;;;;;;;;;;;1.68;100.00;100064.28;2081630;28;19916;-57
2020/12/14 01:18:31;;;;;;;;;;;;;;;1.69;100.00;100062.59;2081382;28;20349;-57
2020/12/14 01:19:31;;;;;;;;;;;;;;;1.71;100.00;100061.72;2081351;28;19916;-57
2020/12/14 01:20:32;;;;;;;;;;;;;;;1.74;100.00;100068.59;2080690;28;19913;-57
2020/12/14 01:21:32;;;;;;;;;;;;;;;1.74;100.00;100060.88;2081196;28;19917;-57
2020/12/14 01:22:32;;;;;;;;;;;;;;;1.76;100.00;100069.44;2075182;28;19967;-58
2020/12/14 01:23:32;;;;;;;;;;;;;;;1.77;100.00;100068.59;2073201;28;19916;-57
2020/12/14 01:24:32;;;;;;;;;;;;;;;1.76;100.00;100064.31;2073059;28;19909;-57
2020/12/14 01:25:33;;;;;;;;;;;;;;;1.75;100.00;100065.16;2072890;28;19916;-57
2020/12/14 01:26:33;;;;;;;;;;;;;;;1.76;100.00;100063.47;2073007;28;19910;-57
2020/12/14 01:27:33;;;;;;;;;;;;;;;1.74;100.00;100060.88;2073064;28;20401;-57
2020/12/14 01:28:33;;;;;;;;;;;;;;;1.73;100.00;100064.28;2077071;28;19909;-57
2020/12/14 01:29:33;;;;;;;;;;;;;;;1.71;100.00;100073.72;2081058;28;19913;-57
2020/12/14 01:30:34;;;;;;;;;;;;;;;1.65;100.00;100071.13;2080040;28;19955;-57
2020/12/14 01:31:34;;;;;;;;;;;;;;;1.64;100.00;100065.13;2081133;28;20424;-58
2020/12/14 01:32:34;;;;;;;;;;;;;;;1.61;100.00;100074.53;2080825;28;19915;-57
2020/12/14 01:33:35;;;;;;;;;;;;;;;1.61;100.00;100065.09;2081081;28;20361;-57
2020/12/14 01:34:35;;;;;;;;;;;;;;;1.63;100.00;100067.66;2077190;28;19917;-57
2020/12/14 01:35:35;;;;;;;;;;;;;;;1.62;100.00;100071.09;2072879;28;20276;-57
2020/12/14 01:36:35;;;;;;;;;;;;;;;1.62;100.00;100066.84;2073201;28;19967;-58
2020/12/14 01:37:35;;;;;;;;;;;;;;;1.59;100.00;100065.97;2075167;28;19913;-58
2020/12/14 01:38:35;;;;;;;;;;;;;;;1.54;100.00;100073.66;2076238;28;19909;-57
2020/12/14 01:39:36;;;;;;;;;;;;;;;1.54;100.00;100068.50;2072971;28;19916;-57
2020/12/14 01:40:36;;;;;;;;;;;;;;;1.51;100.00;100074.50;2073016;28;19913;-57
2020/12/14 01:41:36;;;;;;;;;;;;;;;1.46;100.00;100071.03;2073039;28;19914;-57
2020/12/14 01:42:40;;;;;;;;;;;;;;;1.43;100.00;100075.31;2071747;28;19916;-57
2020/12/14 01:43:40;;;;;;;;;;;;;;;1.40;100.00;100078.72;2072235;28;20349;-57
2020/12/14 01:44:40;;;;;;;;;;;;;;;1.38;100.00;100082.97;2073074;28;19916;-57
2020/12/14 01:45:40;;;;;;;;;;;;;;;1.39;100.00;100082.13;2072851;28;19997;-57
2020/12/14 01:46:42;;;;;;;;;;;;;;;1.35;100.00;100081.25;2076547;28;19908;-57
2020/12/14 01:47:43;;;;;;;;;;;;;;;1.32;100.00;100077.81;2081210;28;19944;-57
2020/12/14 01:48:43;;;;;;;;;;;;;;;1.30;100.00;100076.94;2081057;28;19909;-57
2020/12/14 01:49:43;;;;;;;;;;;;;;;1.23;100.00;100078.63;2081155;28;19916;-57
2020/12/14 01:50:44;;;;;;;;;;;;;;;1.15;100.00;100085.41;2081293;28;19917;-57
2020/12/14 01:51:44;;;;;;;;;;;;;;;1.12;100.00;100076.00;2081086;28;19916;-58
2020/12/14 01:52:46;;;;;;;;;;;;;;;1.21;100.00;100075.16;2080722;28;19909;-57
2020/12/14 01:53:46;;;;;;;;;;;;;;;1.14;100.00;100068.28;2081103;28;19971;-57
2020/12/14 01:54:46;;;;;;;;;;;;;;;1.11;100.00;100083.66;2081062;28;20419;-57
2020/12/14 01:55:47;;;;;;;;;;;;;;;1.08;100.00;100079.38;2081271;28;19967;-57
2020/12/14 01:56:48;;;;;;;;;;;;;;;1.06;100.00;100070.81;2081068;28;19916;-57
2020/12/14 01:57:48;;;;;;;;;;;;;;;1.09;100.00;100070.81;2081197;28;19909;-57
2020/12/14 01:58:49;;;;;;;;;;;;;;;1.11;100.00;100073.41;2080843;28;19909;-57
2020/12/14 01:59:50;;;;;;;;;;;;;;;1.09;100.00;100071.69;2081281;28;20450;-57
2020/12/14 02:00:50;;;;;;;;;;;;;;;1.08;100.00;100063.97;2080403;28;19955;-57
2020/12/14 02:01:50;;;;;;;;;;;;;;;1.11;100.00;100069.13;2080689;28;19909;-57
2020/12/14 02:02:50;;;;;;;;;;;;;;;1.07;100.00;100073.41;2080806;28;20262;-57
2020/12/14 02:03:50;;;;;;;;;;;;;;;1.05;100.00;100069.09;2081189;28;19916;-57
2020/12/14 02:04:51;;;;;;;;;;;;;;;1.09;100.00;100068.25;2074671;28;19948;-57
2020/12/14 02:05:51;;;;;;;;;;;;;;;1.13;100.00;100072.56;2073029;28;20428;-57
2020/12/14 02:06:51;;;;;;;;;;;;;;;1.12;100.00;100068.28;2072782;28;19985;-57
2020/12/14 02:07:52;;;;;;;;;;;;;;;1.11;100.00;100069.13;2073027;28;19909;-57
2020/12/14 02:08:52;;;;;;;;;;;;;;;1.13;100.00;100064.00;2072933;28;19917;-57
2020/12/14 02:09:55;;;;;;;;;;;;;;;1.22;100.00;100072.63;2072911;28;19936;-57
2020/12/14 02:10:55;;;;;;;;;;;;;;;1.20;100.00;100071.75;2072981;28;19974;-57
2020/12/14 02:11:56;;;;;;;;;;;;;;;1.17;100.00;100064.03;2073144;28;19910;-57
2020/12/14 02:12:56;;;;;;;;;;;;;;;1.16;100.00;100067.44;2072733;28;19910;-57
2020/12/14 02:13:56;;;;;;;;;;;;;;;1.15;100.00;100065.72;2073142;28;19920;-57
2020/12/14 02:14:57;;;;;;;;;;;;;;;1.11;100.00;100058.88;2072911;28;19917;-57
2020/12/14 02:15:57;;;;;;;;;;;;;;;1.14;100.00;100063.16;2072848;28;19916;-57
2020/12/14 02:16:58;;;;;;;;;;;;;;;1.14;100.00;100068.28;2072987;28;19932;-57
2020/12/14 02:17:58;;;;;;;;;;;;;;;1.12;100.00;100060.59;2080604;28;19909;-57
2020/12/14 02:18:58;;;;;;;;;;;;;;;1.12;100.00;100057.16;2080500;28;19917;-57
2020/12/14 02:19:58;;;;;;;;;;;;;;;1.09;100.00;100058.00;2080774;28;19954;-57
2020/12/14 02:20:59;;;;;;;;;;;;;;;1.06;100.00;100056.28;2077555;28;20424;-57
2020/12/14 02:21:59;;;;;;;;;;;;;;;1.11;100.00;100058.00;2073071;28;20512;-58
2020/12/14 02:22:59;;;;;;;;;;;;;;;1.08;100.00;100058.84;2074709;28;19948;-58
2020/12/14 02:23:59;;;;;;;;;;;;;;;1.04;100.00;100051.97;2081142;28;19919;-57
2020/12/14 02:25:03;;;;;;;;;;;;;;;1.17;100.00;100050.34;2081104;28;19913;-57
2020/12/14 02:26:04;;;;;;;;;;;;;;;1.11;100.00;100048.59;2081122;28;19909;-57
2020/12/14 02:27:04;;;;;;;;;;;;;;;1.13;100.00;100046.88;2081244;28;20016;-57
2020/12/14 02:28:04;;;;;;;;;;;;;;;1.07;100.00;100045.16;2074334;28;19920;-57
2020/12/14 02:29:04;;;;;;;;;;;;;;;0.97;100.00;100043.38;2072938;28;19952;-57
2020/12/14 02:30:05;;;;;;;;;;;;;;;1.00;100.00;100045.09;2072967;28;19920;-57
2020/12/14 02:31:05;;;;;;;;;;;;;;;1.00;100.00;100045.09;2073085;28;19993;-57
2020/12/14 02:32:06;;;;;;;;;;;;;;;0.90;100.00;100042.47;2072906;28;19910;-57
2020/12/14 02:33:06;;;;;;;;;;;;;;;0.95;100.00;100046.78;2073878;28;20282;-57
2020/12/14 02:34:06;;;;;;;;;;;;;;;0.99;100.00;100045.94;2072214;28;19999;-57
2020/12/14 02:35:06;;;;;;;;;;;;;;;1.01;100.00;100046.81;2072238;28;20364;-57
2020/12/14 02:36:06;;;;;;;;;;;;;;;1.05;100.00;100048.53;2072060;28;20289;-57
2020/12/14 02:37:07;;;;;;;;;;;;;;;1.05;100.00;100053.69;2072367;28;19945;-57
2020/12/14 02:38:08;;;;;;;;;;;;;;;0.96;100.00;100046.81;2072899;28;19916;-57
2020/12/14 02:39:08;;;;;;;;;;;;;;;0.96;100.00;100051.06;2073042;28;19909;-57
2020/12/14 02:40:08;;;;;;;;;;;;;;;1.01;100.00;100051.97;2078438;28;19917;-57
2020/12/14 02:41:08;;;;;;;;;;;;;;;0.99;100.00;100049.38;2079429;28;20003;-57
2020/12/14 02:42:10;;;;;;;;;;;;;;;1.11;100.00;100047.72;2072968;28;19914;-57
2020/12/14 02:43:11;;;;;;;;;;;;;;;1.07;100.00;100052.00;2073296;28;19914;-57
2020/12/14 02:44:11;;;;;;;;;;;;;;;1.06;100.00;100045.13;2072837;28;19909;-57
2020/12/14 02:45:11;;;;;;;;;;;;;;;1.02;100.00;100033.16;2074157;28;19952;-57
2020/12/14 02:46:11;;;;;;;;;;;;;;;0.95;100.00;100036.50;2080421;28;20249;-58
2020/12/14 02:47:12;;;;;;;;;;;;;;;1.02;99.94;100028.03;2081186;28;19916;-58
2020/12/14 02:48:12;;;;;;;;;;;;;;;1.07;99.92;100029.75;2081055;28;20019;-57
2020/12/14 02:49:12;;;;;;;;;;;;;;;1.06;99.62;100027.16;2078195;28;19921;-57
2020/12/14 02:50:12;;;;;;;;;;;;;;;0.98;99.74;100021.13;2078922;28;20328;-57
2020/12/14 02:51:16;;;;;;;;;;;;;;;1.00;99.73;100022.84;2081098;28;20416;-58
2020/12/14 02:52:16;;;;;;;;;;;;;;;0.91;99.65;100020.22;2080564;28;19916;-58
2020/12/14 02:53:17;;;;;;;;;;;;;;;1.05;99.72;100025.44;2081120;28;19956;-58
2020/12/14 02:54:17;;;;;;;;;;;;;;;0.95;99.66;100021.09;2080945;28;19956;-57
2020/12/14 02:55:17;;;;;;;;;;;;;;;0.97;99.76;100028.00;2080818;28;20353;-58
2020/12/14 02:56:19;;;;;;;;;;;;;;;0.90;99.62;100019.38;2080523;28;20277;-57
2020/12/14 02:57:19;;;;;;;;;;;;;;;0.99;99.69;100025.41;2072898;28;19944;-58
2020/12/14 02:58:20;;;;;;;;;;;;;;;0.95;99.80;100018.53;2072953;28;19910;-57
2020/12/14 02:59:20;;;;;;;;;;;;;;;0.92;99.78;100027.97;2083421;28;20066;-58
2020/12/14 03:00:21;;;;;;;;;;;;;;;1.02;99.61;100028.88;2088466;28;20400;-58
2020/12/14 03:01:21;;;;;;;;;;;;;;;0.98;99.57;100021.13;2080968;28;19909;-57
2020/12/14 03:02:21;;;;;;;;;;;;;;;0.86;99.70;100019.34;2080132;28;19909;-58
2020/12/14 03:03:21;;;;;;;;;;;;;;;0.81;99.83;100019.34;2072248;28;20435;-58
2020/12/14 03:04:21;;;;;;;;;;;;;;;0.84;99.76;100023.63;2072082;28;19910;-57
2020/12/14 03:05:22;;;;;;;;;;;;;;;0.80;99.81;100019.28;2071790;28;19909;-58
2020/12/14 03:06:22;;;;;;;;;;;;;;;0.86;99.87;100022.78;2072723;28;19916;-57
2020/12/14 03:07:22;;;;;;;;;;;;;;;0.81;99.77;100023.59;2073882;28;20381;-57
2020/12/14 03:08:22;;;;;;;;;;;;;;;0.80;99.87;100021.88;2072773;28;19909;-57
2020/12/14 03:09:23;;;;;;;;;;;;;;;0.82;99.95;100023.63;2072174;28;19914;-58
2020/12/14 03:10:23;;;;;;;;;;;;;;;0.73;99.99;100026.13;2072896;28;20356;-58
2020/12/14 03:11:23;;;;;;;;;;;;;;;0.73;100.00;100026.13;2072723;28;19913;-58
2020/12/14 03:12:23;;;;;;;;;;;;;;;0.79;99.91;100028.72;2072553;28;20444;-57
2020/12/14 03:13:23;;;;;;;;;;;;;;;0.73;100.00;100029.53;2072666;28;19909;-58
2020/12/14 03:14:25;;;;;;;;;;;;;;;0.77;99.96;100026.16;2072873;28;19956;-57
2020/12/14 03:15:25;;;;;;;;;;;;;;;0.75;99.85;100006.44;2074267;28;19921;-58
2020/12/14 03:16:25;;;;;;;;;;;;;;;0.79;99.95;100010.75;2081177;28;19988;-58
2020/12/14 03:17:26;;;;;;;;;;;;;;;0.64;99.95;100011.50;2080880;28;19958;-58
2020/12/14 03:18:26;;;;;;;;;;;;;;;0.59;100.00;100008.91;2079508;28;19952;-58
2020/12/14 03:19:26;;;;;;;;;;;;;;;0.55;100.00;100012.28;2082009;28;20369;-58
2020/12/14 03:20:26;;;;;;;;;;;;;;;0.49;100.00;100009.69;2082415;28;19915;-58
2020/12/14 03:21:27;;;;;;;;;;;;;;;0.54;100.00;100005.44;2082083;28;19916;-58
2020/12/14 03:22:27;;;;;;;;;;;;;;;0.52;100.00;100002.03;2080562;28;19936;-58
2020/12/14 03:23:27;;;;;;;;;;;;;;;0.59;100.00;100008.91;2073707;28;20354;-57
2020/12/14 03:24:27;;;;;;;;;;;;;;;0.59;100.00;100008.03;2073800;28;19913;-58
2020/12/14 03:25:27;;;;;;;;;;;;;;;0.60;100.00;100002.06;2073671;28;20384;-58
2020/12/14 03:26:28;;;;;;;;;;;;;;;0.54;100.00;100002.88;2073849;28;19909;-57
2020/12/14 03:27:28;;;;;;;;;;;;;;;0.44;100.00;99999.41;2073860;28;19917;-58
2020/12/14 03:28:28;;;;;;;;;;;;;;;0.43;100.00;99996.84;2073673;28;20558;-57
2020/12/14 03:29:29;;;;;;;;;;;;;;;0.54;100.00;99997.75;2078506;28;19917;-57
2020/12/14 03:30:29;;;;;;;;;;;;;;;0.52;100.00;100001.16;2081204;28;19940;-57
2020/12/14 03:31:29;;;;;;;;;;;;;;;0.60;100.00;99999.50;2081425;28;19913;-58
2020/12/14 03:32:30;;;;;;;;;;;;;;;0.55;100.00;99994.34;2081553;28;19912;-58
2020/12/14 03:33:30;;;;;;;;;;;;;;;0.60;100.00;99995.25;2081934;28;19916;-58
2020/12/14 03:34:30;;;;;;;;;;;;;;;0.54;100.00;100008.00;2081820;28;19913;-58
2020/12/14 03:35:30;;;;;;;;;;;;;;;0.55;100.00;100004.59;2081814;28;19909;-57
2020/12/14 03:36:31;;;;;;;;;;;;;;;0.54;100.00;100008.00;2081916;28;19962;-58
2020/12/14 03:37:31;;;;;;;;;;;;;;;0.48;100.00;100007.13;2079024;28;19952;-57
2020/12/14 03:38:31;;;;;;;;;;;;;;;0.51;100.00;100010.56;2072970;28;19914;-58
2020/12/14 03:39:31;;;;;;;;;;;;;;;0.48;100.00;100013.09;2073117;28;19909;-58
2020/12/14 03:40:31;;;;;;;;;;;;;;;0.46;100.00;100012.22;2074070;28;19916;-58
2020/12/14 03:41:31;;;;;;;;;;;;;;;0.38;100.00;100019.00;2073464;28;20316;-58
2020/12/14 03:42:32;;;;;;;;;;;;;;;0.41;100.00;100030.13;2072983;28;19909;-58
2020/12/14 03:43:32;;;;;;;;;;;;;;;0.43;100.00;100022.47;2073457;28;20562;-58
2020/12/14 03:44:33;;;;;;;;;;;;;;;0.41;100.00;100024.16;2073633;28;19963;-58
2020/12/14 03:45:33;;;;;;;;;;;;;;;0.33;100.00;100025.78;2073668;28;19913;-58
2020/12/14 03:46:35;;;;;;;;;;;;;;;0.36;100.00;100025.81;2077331;28;19917;-57
2020/12/14 03:47:35;;;;;;;;;;;;;;;0.30;100.00;100027.47;2081923;28;20437;-58
2020/12/14 03:48:35;;;;;;;;;;;;;;;0.21;100.00;100035.09;2081769;28;19909;-58
2020/12/14 03:49:35;;;;;;;;;;;;;;;0.21;100.00;100022.28;2081964;28;19995;-58
2020/12/14 03:50:42;;;;;;;;;;;;;;;0.19;100.00;100021.41;2081797;28;19962;-58
2020/12/14 03:51:42;;;;;;;;;;;;;;;0.21;100.00;100021.41;2082053;28;19951;-58
2020/12/14 03:52:42;;;;;;;;;;;;;;;0.15;100.00;100020.50;2078265;28;19967;-58
2020/12/14 03:53:42;;;;;;;;;;;;;;;0.18;100.00;100029.94;2073721;28;19952;-57
2020/12/14 03:54:43;;;;;;;;;;;;;;;0.12;100.00;100029.88;2073569;28;19913;-58
2020/12/14 03:55:43;;;;;;;;;;;;;;;0.17;100.00;100020.50;2073626;28;20384;-58
2020/12/14 03:56:43;;;;;;;;;;;;;;;0.11;100.00;100028.16;2073752;28;19910;-57
2020/12/14 03:57:43;;;;;;;;;;;;;;;0.11;100.00;100020.47;2073633;28;20012;-58
2020/12/14 03:58:43;;;;;;;;;;;;;;;0.16;100.00;100018.78;2073577;28;20400;-58
2020/12/14 03:59:44;;;;;;;;;;;;;;;0.13;100.00;100019.63;2077024;28;19913;-58
2020/12/14 04:00:44;;;;;;;;;;;;;;;0.07;100.00;100024.72;2081014;28;19936;-58
2020/12/14 04:01:45;;;;;;;;;;;;;;;0.01;100.00;100034.03;2081737;28;19909;-58
2020/12/14 04:02:45;;;;;;;;;;;;;;;0.04;100.00;100029.78;2081603;28;20380;-58
2020/12/14 04:03:46;;;;;;;;;;;;;;;0.13;100.00;100029.88;2081740;28;19916;-58
2020/12/14 04:04:46;;;;;;;;;;;;;;;0.16;100.00;100031.59;2081816;28;19916;-57
2020/12/14 04:05:46;;;;;;;;;;;;;;;0.21;100.00;100029.97;2081628;28;19909;-58
2020/12/14 04:06:46;;;;;;;;;;;;;;;0.14;100.00;100033.31;2081845;28;19909;-58
2020/12/14 04:07:46;;;;;;;;;;;;;;;0.22;100.00;100033.38;2079968;28;19913;-58
2020/12/14 04:08:47;;;;;;;;;;;;;;;0.29;100.00;100036.00;2080860;28;20002;-58
2020/12/14 04:09:47;;;;;;;;;;;;;;;0.25;100.00;100031.69;2073579;28;19910;-58
2020/12/14 04:10:48;;;;;;;;;;;;;;;0.38;100.00;100034.38;2073596;28;19909;-57
2020/12/14 04:11:48;;;;;;;;;;;;;;;0.28;100.00;100033.44;2073572;28;19909;-57
2020/12/14 04:12:48;;;;;;;;;;;;;;;0.28;100.00;100034.28;2077115;28;20269;-57
2020/12/14 04:13:49;;;;;;;;;;;;;;;0.42;100.00;100036.13;2081220;28;19913;-57
2020/12/14 04:14:49;;;;;;;;;;;;;;;0.45;100.00;100036.13;2081546;28;19945;-57
2020/12/14 04:15:49;;;;;;;;;;;;;;;0.41;100.00;100031.84;2081078;28;19913;-57
2020/12/14 04:16:52;;;;;;;;;;;;;;;0.37;100.00;100032.66;2081616;28;19919;-57
2020/12/14 04:17:52;;;;;;;;;;;;;;;0.40;100.00;100040.38;2081673;28;20373;-57
2020/12/14 04:18:54;;;;;;;;;;;;;;;0.42;100.00;100033.56;2081776;28;20017;-57
2020/12/14 04:19:54;;;;;;;;;;;;;;;0.44;100.00;100032.72;2081525;28;19916;-57
2020/12/14 04:20:55;;;;;;;;;;;;;;;0.50;100.00;100031.91;2067761;23;573308;-57
2020/12/14 04:21:55;;;;;;;;;;;;;;;0.65;100.00;100028.63;2073542;28;19921;-57
2020/12/14 04:22:55;;;;;;;;;;;;;;;0.63;100.00;100024.34;2073905;28;20389;-57
2020/12/14 04:23:55;;;;;;;;;;;;;;;0.70;100.00;100028.66;2073488;28;19913;-57
2020/12/14 04:24:56;;;;;;;;;;;;;;;0.68;99.82;100018.38;2078590;28;20287;-57
2020/12/14 04:25:56;;;;;;;;;;;;;;;0.75;99.46;100030.41;2081868;28;19932;-57
2020/12/14 04:26:56;;;;;;;;;;;;;;;0.71;99.35;100027.81;2081731;28;19963;-57
2020/12/14 04:27:59;;;;;;;;;;;;;;;0.68;99.31;100030.34;2073157;28;19913;-57
2020/12/14 04:28:59;;;;;;;;;;;;;;;0.64;99.23;100023.50;2073698;28;20008;-57
2020/12/14 04:30:00;;;;;;;;;;;;;;;0.71;99.07;100022.69;2081506;28;19963;-57
2020/12/14 04:31:00;;;;;;;;;;;;;;;0.67;98.99;100021.81;2080987;28;20464;-57
2020/12/14 04:32:00;;;;;;;;;;;;;;;0.75;98.98;100015.00;2081966;28;20372;-57
2020/12/14 04:33:01;;;;;;;;;;;;;;;0.75;98.73;100016.69;2081637;28;19920;-57
2020/12/14 04:34:01;;;;;;;;;;;;;;;0.76;98.25;100008.16;2082021;28;19912;-57
2020/12/14 04:35:02;;;;;;;;;;;;;;;0.77;98.41;100012.44;2081659;28;20345;-57
2020/12/14 04:36:02;;;;;;;;;;;;;;;0.75;98.38;100012.44;2081876;28;19966;-57
2020/12/14 04:37:02;;;;;;;;;;;;;;;0.70;98.55;100005.56;2081867;28;19909;-57
2020/12/14 04:38:03;;;;;;;;;;;;;;;0.69;98.45;100008.97;2082027;28;19947;-57
2020/12/14 04:39:04;;;;;;;;;;;;;;;0.75;98.43;100015.00;2081853;28;19917;-57
2020/12/14 04:40:04;;;;;;;;;;;;;;;0.67;98.44;100010.66;2081746;28;19944;-57
2020/12/14 04:41:05;;;;;;;;;;;;;;;0.67;98.57;100016.66;2081672;28;19913;-57
2020/12/14 04:42:05;;;;;;;;;;;;;;;0.60;98.78;100018.31;2081691;28;19970;-57
2020/12/14 04:43:07;;;;;;;;;;;;;;;0.57;98.61;100020.00;2080957;28;20451;-57
2020/12/14 04:44:08;;;;;;;;;;;;;;;0.57;98.67;100020.00;2081425;28;20007;-57
2020/12/14 04:45:10;;;;;;;;;;;;;;;0.52;98.80;100027.66;2081443;28;19908;-57
2020/12/14 04:46:10;;;;;;;;;;;;;;;0.45;99.18;100023.31;2081817;28;20066;-57
2020/12/14 04:47:11;;;;;;;;;;;;;;;0.51;98.94;100031.06;2081319;28;20376;-57
2020/12/14 04:48:13;;;;;;;;;;;;;;;0.48;98.94;100025.06;2081389;28;19960;-57
2020/12/14 04:49:13;;;;;;;;;;;;;;;0.38;99.03;100026.69;2081454;28;19913;-57
2020/12/14 04:50:15;;;;;;;;;;;;;;;0.39;99.16;100023.28;2081712;28;19913;-57
2020/12/14 04:51:15;;;;;;;;;;;;;;;0.51;99.32;100020.81;2081366;28;19955;-57
2020/12/14 04:52:17;;;;;;;;;;;;;;;0.40;99.30;100028.41;2081465;28;19917;-57
2020/12/14 04:53:17;;;;;;;;;;;;;;;0.27;99.37;100024.88;2081231;28;19917;-57
2020/12/14 04:54:18;;;;;;;;;;;;;;;0.29;99.59;100020.63;2081747;28;20283;-57
2020/12/14 04:55:19;;;;;;;;;;;;;;;0.24;99.65;100018.88;2081135;28;20546;-57
2020/12/14 04:56:25;;;;;;;;;;;;;;;0.23;99.75;100017.16;2081715;28;20344;-57
2020/12/14 04:57:26;;;;;;;;;;;;;;;0.24;99.80;100016.31;2081461;28;19952;-57
2020/12/14 04:58:26;;;;;;;;;;;;;;;0.20;99.79;100009.44;2081647;28;19916;-57
2020/12/14 04:59:26;;;;;;;;;;;;;;;0.27;99.95;100019.75;2081568;28;19908;-57
2020/12/14 05:00:26;;;;;;;;;;;;;;;0.23;99.83;100020.59;2081453;28;19916;-57
2020/12/14 05:01:26;;;;;;;;;;;;;;;0.28;99.85;100021.47;2081010;28;19913;-57
2020/12/14 05:02:27;;;;;;;;;;;;;;;0.25;99.89;100023.16;2081338;28;19961;-57
2020/12/14 05:03:27;;;;;;;;;;;;;;;0.32;100.00;100026.63;2081444;28;19916;-57
2020/12/14 05:04:27;;;;;;;;;;;;;;;0.24;99.99;100022.31;2072485;28;19913;-57